createdAt,value
2022-11-19T00:01:05.008Z,-0.50
2022-11-19T00:02:08.820Z,-0.50
2022-11-19T00:03:11.849Z,-0.40
2022-11-19T00:04:15.437Z,-2.40
2022-11-19T00:05:17.895Z,-0.50
2022-11-19T00:06:23.306Z,-0.50
2022-11-19T00:07:27.687Z,-0.50
2022-11-19T00:08:30.201Z,-0.50
2022-11-19T00:09:36.314Z,-0.40
2022-11-19T00:10:39.876Z,-0.40
2022-11-19T00:12:02.199Z,2.50
2022-11-19T00:13:09.679Z,-0.40
2022-11-19T00:14:14.812Z,-0.40
2022-11-19T00:15:18.641Z,-0.30
2022-11-19T00:16:21.010Z,-0.30
2022-11-19T00:17:24.639Z,-0.30
2022-11-19T00:18:27.321Z,-0.50
2022-11-19T00:19:33.237Z,-0.60
2022-11-19T00:20:36.017Z,2.30
2022-11-19T00:21:43.400Z,-0.70
2022-11-19T00:22:45.869Z,-0.70
2022-11-19T00:23:49.922Z,-0.70
2022-11-19T00:24:53.895Z,-0.70
2022-11-19T00:25:58.319Z,0.40
2022-11-19T00:27:02.956Z,-0.70
2022-11-19T00:28:06.911Z,-0.70
2022-11-19T00:29:15.507Z,-0.70
2022-11-19T00:30:46.309Z,-0.70
2022-11-19T00:31:44.910Z,-0.70
2022-11-19T00:32:49.870Z,-0.70
2022-11-19T00:33:54.378Z,-0.70
2022-11-19T00:34:56.885Z,-0.70
2022-11-19T00:36:02.349Z,-0.80
2022-11-19T00:37:05.072Z,-0.50
2022-11-19T00:38:08.926Z,-0.90
2022-11-19T00:39:11.384Z,-0.90
2022-11-19T00:40:15.538Z,-1.00
2022-11-19T00:41:20.877Z,-0.90
2022-11-19T00:42:26.015Z,-0.90
2022-11-19T00:43:47.492Z,-0.90
2022-11-19T00:44:51.316Z,1.10
2022-11-19T00:45:54.057Z,-1.20
2022-11-19T00:46:57.639Z,-1.20
2022-11-19T00:47:59.977Z,-1.10
2022-11-19T00:49:03.601Z,-1.10
2022-11-19T00:50:07.328Z,-1.10
2022-11-19T00:51:11.300Z,-1.20
2022-11-19T00:52:14.986Z,-1.20
2022-11-19T00:53:17.450Z,-1.20
2022-11-19T00:54:21.065Z,-0.60
2022-11-19T00:55:23.408Z,-1.00
2022-11-19T00:56:28.740Z,-1.00
2022-11-19T00:57:33.721Z,-0.90
2022-11-19T00:58:37.662Z,-0.90
2022-11-19T00:59:40.741Z,-0.80
2022-11-19T01:00:44.208Z,-2.50
2022-11-19T01:01:48.092Z,-0.80
2022-11-19T01:02:50.709Z,-0.80
2022-11-19T01:03:54.364Z,0.00
2022-11-19T01:04:56.759Z,-0.70
2022-11-19T01:06:00.541Z,-0.70
2022-11-19T01:07:04.393Z,-0.70
2022-11-19T01:08:07.323Z,-0.70
2022-11-19T01:09:10.774Z,-0.50
2022-11-19T01:10:13.393Z,-0.50
2022-11-19T01:11:20.260Z,-0.60
2022-11-19T01:12:22.815Z,-0.60
2022-11-19T01:13:35.694Z,-0.60
2022-11-19T01:14:38.973Z,-0.50
2022-11-19T01:15:41.567Z,-0.40
2022-11-19T01:16:44.994Z,-0.40
2022-11-19T01:17:47.634Z,-0.40
2022-11-19T01:18:52.348Z,-0.50
2022-11-19T01:19:55.608Z,-0.50
2022-11-19T01:20:58.963Z,-0.40
2022-11-19T01:22:01.631Z,1.80
2022-11-19T01:23:05.255Z,-0.40
2022-11-19T01:24:09.090Z,2.90
2022-11-19T01:25:11.846Z,-1.00
2022-11-19T01:26:16.579Z,-0.50
2022-11-19T01:27:19.105Z,-0.50
2022-11-19T01:28:25.854Z,-0.50
2022-11-19T01:29:31.236Z,-3.20
2022-11-19T01:30:33.958Z,-0.50
2022-11-19T01:31:37.431Z,-0.70
2022-11-19T01:32:40.210Z,-0.60
2022-11-19T01:33:44.313Z,-0.50
2022-11-19T01:34:47.203Z,-0.50
2022-11-19T01:36:01.947Z,-0.50
2022-11-19T01:37:04.787Z,-0.50
2022-11-19T01:38:08.541Z,-0.40
2022-11-19T01:39:12.166Z,-0.40
2022-11-19T01:40:15.813Z,-0.20
2022-11-19T01:41:19.997Z,0.30
2022-11-19T01:42:43.140Z,-0.30
2022-11-19T01:43:48.928Z,3.10
2022-11-19T01:45:02.653Z,-0.20
2022-11-19T01:46:06.674Z,-0.20
2022-11-19T01:47:09.382Z,1.10
2022-11-19T01:48:20.399Z,-0.20
2022-11-19T01:49:23.174Z,-0.30
2022-11-19T01:50:30.581Z,-0.20
2022-11-19T01:51:38.331Z,-0.30
2022-11-19T01:52:42.540Z,-0.30
2022-11-19T01:53:48.982Z,0.80
2022-11-19T01:54:55.763Z,-0.40
2022-11-19T01:56:04.262Z,-0.40
2022-11-19T01:57:11.221Z,-0.40
2022-11-19T01:58:19.301Z,-0.30
2022-11-19T01:59:27.022Z,-0.30
2022-11-19T02:00:32.205Z,-0.30
2022-11-19T02:01:34.956Z,-0.30
2022-11-19T02:02:38.576Z,-0.30
2022-11-19T02:03:41.589Z,-0.30
2022-11-19T02:04:45.274Z,-0.10
2022-11-19T02:05:51.846Z,-0.30
2022-11-19T02:06:56.473Z,-0.30
2022-11-19T02:07:59.619Z,0.60
2022-11-19T02:09:02.835Z,-0.20
2022-11-19T02:10:07.215Z,-0.20
2022-11-19T02:11:30.423Z,-0.20
2022-11-19T02:12:45.823Z,-1.10
2022-11-19T02:14:01.780Z,-0.10
2022-11-19T02:15:23.887Z,-0.10
2022-11-19T02:16:37.769Z,-0.10
2022-11-19T02:18:01.523Z,-0.10
2022-11-19T02:19:25.200Z,-0.10
2022-11-19T02:20:56.093Z,-0.10
2022-11-19T02:22:16.054Z,0.00
2022-11-19T02:24:03.061Z,0.00
2022-11-19T02:25:20.067Z,0.00
2022-11-19T02:27:06.887Z,0.50
2022-11-19T02:28:27.929Z,0.00
2022-11-19T02:30:05.102Z,0.50
2022-11-19T02:31:13.898Z,0.10
2022-11-19T02:32:24.546Z,0.00
2022-11-19T02:33:36.543Z,0.00
2022-11-19T02:34:47.816Z,-0.10
2022-11-19T02:36:00.549Z,-0.10
2022-11-19T02:37:10.474Z,-0.10
2022-11-19T02:38:24.690Z,-0.10
2022-11-19T02:39:35.953Z,-0.10
2022-11-19T02:40:44.911Z,-0.10
2022-11-19T02:41:56.376Z,-0.10
2022-11-19T02:43:11.715Z,-0.20
2022-11-19T02:44:41.550Z,-0.20
2022-11-19T02:45:53.072Z,-0.30
2022-11-19T02:47:03.145Z,-0.30
2022-11-19T02:48:15.562Z,2.90
2022-11-19T02:49:21.871Z,-0.30
2022-11-19T02:50:31.153Z,-0.30
2022-11-19T02:51:34.491Z,2.50
2022-11-19T02:52:40.169Z,-0.30
2022-11-19T02:53:42.615Z,-0.20
2022-11-19T02:54:46.357Z,-0.20
2022-11-19T02:56:06.014Z,-0.20
2022-11-19T02:57:12.565Z,-0.20
2022-11-19T02:58:36.855Z,-0.10
2022-11-19T03:00:07.578Z,-0.10
2022-11-19T03:01:30.364Z,-0.20
2022-11-19T03:02:59.285Z,-0.10
2022-11-19T03:04:20.546Z,-0.30
2022-11-19T03:05:29.283Z,0.30
2022-11-19T03:06:34.913Z,-0.20
2022-11-19T03:07:39.536Z,-0.20
2022-11-19T03:08:42.955Z,-0.20
2022-11-19T03:09:59.948Z,-0.20
2022-11-19T03:11:13.420Z,-0.20
2022-11-19T03:12:29.287Z,-0.30
2022-11-19T03:14:05.372Z,-0.30
2022-11-19T03:15:46.912Z,-0.20
2022-11-19T03:17:01.232Z,-0.20
2022-11-19T03:18:11.418Z,-0.20
2022-11-19T03:19:32.344Z,-0.20
2022-11-19T03:20:40.807Z,-0.60
2022-11-19T03:21:52.639Z,-0.10
2022-11-19T03:23:01.437Z,-0.10
2022-11-19T03:24:12.318Z,-0.10
2022-11-19T03:25:22.773Z,0.00
2022-11-19T03:26:31.648Z,1.20
2022-11-19T03:27:39.292Z,-0.10
2022-11-19T03:28:44.672Z,0.00
2022-11-19T03:29:52.373Z,0.00
2022-11-19T03:31:18.907Z,3.20
2022-11-19T03:32:32.411Z,-0.10
2022-11-19T03:33:43.238Z,-0.20
2022-11-19T03:34:52.115Z,-0.20
2022-11-19T03:36:02.461Z,-0.20
2022-11-19T03:37:09.355Z,-0.10
2022-11-19T03:38:20.193Z,-0.10
2022-11-19T03:39:24.823Z,-2.40
2022-11-19T03:40:33.922Z,0.00
2022-11-19T03:41:40.660Z,1.00
2022-11-19T03:42:49.250Z,0.00
2022-11-19T03:43:57.612Z,0.00
2022-11-19T03:45:09.065Z,0.10
2022-11-19T03:46:16.382Z,0.00
2022-11-19T03:47:27.429Z,0.00
2022-11-19T03:48:33.566Z,0.00
2022-11-19T03:49:42.993Z,1.10
2022-11-19T03:50:53.282Z,0.00
2022-11-19T03:52:04.541Z,0.00
2022-11-19T03:53:08.074Z,-0.10
2022-11-19T03:54:10.794Z,-0.10
2022-11-19T03:55:14.885Z,-0.10
2022-11-19T03:56:23.301Z,0.00
2022-11-19T03:57:28.607Z,0.20
2022-11-19T03:58:36.655Z,0.00
2022-11-19T03:59:40.219Z,0.00
2022-11-19T04:00:45.743Z,0.10
2022-11-19T04:01:53.648Z,0.70
2022-11-19T04:02:57.472Z,0.10
2022-11-19T04:04:18.689Z,0.00
2022-11-19T04:05:22.055Z,0.00
2022-11-19T04:06:27.282Z,0.00
2022-11-19T04:07:31.002Z,0.00
2022-11-19T04:08:33.839Z,0.00
2022-11-19T04:09:37.902Z,2.20
2022-11-19T04:10:41.970Z,2.50
2022-11-19T04:12:48.592Z,-0.10
2022-11-19T04:13:51.174Z,0.00
2022-11-19T04:14:54.447Z,0.00
2022-11-19T04:15:56.873Z,0.00
2022-11-19T04:17:00.868Z,-0.10
2022-11-19T04:18:04.674Z,0.00
2022-11-19T04:19:08.062Z,0.40
2022-11-19T04:20:11.084Z,-0.10
2022-11-19T04:21:14.495Z,-0.10
2022-11-19T04:22:16.937Z,-2.70
2022-11-19T04:23:20.658Z,-1.70
2022-11-19T04:24:23.197Z,-0.10
2022-11-19T04:25:26.447Z,-0.10
2022-11-19T04:26:29.050Z,0.00
2022-11-19T04:27:32.525Z,-0.10
2022-11-19T04:28:35.132Z,0.00
2022-11-19T04:29:38.582Z,-0.10
2022-11-19T04:30:40.891Z,0.00
2022-11-19T04:31:44.248Z,-0.10
2022-11-19T04:32:47.138Z,-0.10
2022-11-19T04:33:52.328Z,-0.10
2022-11-19T04:34:54.594Z,-0.10
2022-11-19T04:35:58.183Z,-0.10
2022-11-19T04:37:00.538Z,0.00
2022-11-19T04:38:04.458Z,-0.10
2022-11-19T04:39:07.277Z,-0.20
2022-11-19T04:40:11.966Z,-0.10
2022-11-19T04:41:14.411Z,-0.10
2022-11-19T04:42:19.996Z,0.00
2022-11-19T04:43:22.693Z,-0.10
2022-11-19T04:44:26.012Z,2.10
2022-11-19T04:45:30.906Z,0.90
2022-11-19T04:46:35.325Z,-0.10
2022-11-19T04:47:38.028Z,-0.10
2022-11-19T04:48:41.768Z,-0.10
2022-11-19T04:49:45.582Z,-0.10
2022-11-19T04:50:49.049Z,-0.10
2022-11-19T04:51:51.451Z,-0.20
2022-11-19T04:52:54.690Z,-0.20
2022-11-19T04:53:57.204Z,-0.20
2022-11-19T04:55:00.640Z,2.70
2022-11-19T04:56:03.594Z,0.40
2022-11-19T04:57:07.138Z,-0.20
2022-11-19T04:58:09.557Z,-0.20
2022-11-19T04:59:13.524Z,-0.20
2022-11-19T05:00:17.727Z,-0.20
2022-11-19T05:01:21.445Z,-0.20
2022-11-19T05:02:23.949Z,-0.30
2022-11-19T05:03:27.448Z,-0.20
2022-11-19T05:04:30.126Z,-0.20
2022-11-19T05:05:35.053Z,-0.20
2022-11-19T05:06:38.564Z,-0.10
2022-11-19T05:07:41.253Z,0.00
2022-11-19T05:08:44.940Z,-0.10
2022-11-19T05:09:50.658Z,-0.10
2022-11-19T05:10:54.492Z,-0.10
2022-11-19T05:11:56.750Z,-0.10
2022-11-19T05:13:00.271Z,-0.10
2022-11-19T05:14:02.720Z,-0.10
2022-11-19T05:15:07.129Z,-0.10
2022-11-19T05:16:09.465Z,-0.10
2022-11-19T05:17:13.109Z,-0.10
2022-11-19T05:18:15.565Z,-0.10
2022-11-19T05:19:19.107Z,0.60
2022-11-19T05:20:22.147Z,-0.10
2022-11-19T05:21:26.932Z,-0.10
2022-11-19T05:22:29.186Z,-0.10
2022-11-19T05:23:32.467Z,-0.10
2022-11-19T05:24:34.846Z,-0.10
2022-11-19T05:25:38.614Z,-0.10
2022-11-19T05:26:40.974Z,-0.10
2022-11-19T05:27:44.582Z,-0.10
2022-11-19T05:28:47.746Z,-0.10
2022-11-19T05:29:50.514Z,-0.10
2022-11-19T05:30:55.755Z,-0.10
2022-11-19T05:31:58.150Z,1.30
2022-11-19T05:33:02.063Z,-0.10
2022-11-19T05:34:04.888Z,-0.10
2022-11-19T05:35:09.943Z,0.00
2022-11-19T05:36:13.697Z,0.00
2022-11-19T05:37:17.493Z,-0.10
2022-11-19T05:38:20.907Z,-0.10
2022-11-19T05:39:23.532Z,0.80
2022-11-19T05:40:27.193Z,-0.10
2022-11-19T05:41:30.265Z,-0.10
2022-11-19T05:42:33.744Z,-0.10
2022-11-19T05:43:36.195Z,-0.10
2022-11-19T05:44:39.454Z,-0.10
2022-11-19T05:45:42.022Z,-0.10
2022-11-19T05:46:46.852Z,1.80
2022-11-19T05:47:54.787Z,-0.10
2022-11-19T05:48:58.236Z,-0.10
2022-11-19T05:50:00.600Z,-0.10
2022-11-19T05:51:03.935Z,-0.10
2022-11-19T05:52:06.863Z,-0.20
2022-11-19T05:53:13.774Z,-0.20
2022-11-19T05:54:16.152Z,0.00
2022-11-19T05:55:20.875Z,-0.20
2022-11-19T05:56:23.476Z,-0.20
2022-11-19T05:57:27.480Z,0.10
2022-11-19T05:58:30.184Z,-0.20
2022-11-19T05:59:34.095Z,-0.20
2022-11-19T06:00:39.017Z,-0.20
2022-11-19T06:01:42.526Z,-0.20
2022-11-19T06:02:45.498Z,-0.30
2022-11-19T06:03:51.271Z,-0.20
2022-11-19T06:04:53.740Z,-0.20
2022-11-19T06:05:57.113Z,-0.10
2022-11-19T06:06:59.534Z,0.60
2022-11-19T06:08:03.230Z,-0.10
2022-11-19T06:09:07.272Z,-1.60
2022-11-19T06:10:11.858Z,-0.10
2022-11-19T06:11:29.223Z,-0.10
2022-11-19T06:12:32.626Z,-0.10
2022-11-19T06:13:35.281Z,-0.10
2022-11-19T06:14:38.627Z,-0.10
2022-11-19T06:15:41.251Z,-0.10
2022-11-19T06:16:45.030Z,-0.10
2022-11-19T06:17:48.298Z,-0.10
2022-11-19T06:18:50.879Z,-0.10
2022-11-19T06:19:54.086Z,-0.20
2022-11-19T06:20:56.420Z,-0.20
2022-11-19T06:21:59.779Z,-0.20
2022-11-19T06:23:01.978Z,-0.20
2022-11-19T06:24:07.739Z,-0.20
2022-11-19T06:25:13.451Z,-0.10
2022-11-19T06:26:23.619Z,-0.10
2022-11-19T06:27:27.060Z,-0.20
2022-11-19T06:28:29.416Z,0.30
2022-11-19T06:29:33.035Z,-0.20
2022-11-19T06:30:35.489Z,-0.20
2022-11-19T06:31:38.757Z,-0.20
2022-11-19T06:32:41.020Z,-0.20
2022-11-19T06:33:44.459Z,-0.20
2022-11-19T06:34:49.481Z,-0.20
2022-11-19T06:35:52.867Z,-0.20
2022-11-19T06:36:55.287Z,-0.20
2022-11-19T06:37:58.475Z,2.60
2022-11-19T06:39:00.786Z,-0.20
2022-11-19T06:40:10.109Z,-0.20
2022-11-19T06:41:12.359Z,-0.20
2022-11-19T06:42:32.883Z,-0.20
2022-11-19T06:43:36.272Z,-0.20
2022-11-19T06:44:38.550Z,-0.10
2022-11-19T06:45:42.377Z,-0.20
2022-11-19T06:46:45.368Z,-0.30
2022-11-19T06:47:50.099Z,-0.20
2022-11-19T06:48:52.371Z,-0.10
2022-11-19T06:49:55.793Z,-0.20
2022-11-19T06:51:01.919Z,-0.20
2022-11-19T06:52:05.750Z,-0.20
2022-11-19T06:53:08.211Z,-0.20
2022-11-19T06:54:11.486Z,1.00
2022-11-19T06:55:15.900Z,-0.90
2022-11-19T06:56:22.093Z,-0.10
2022-11-19T06:57:24.926Z,1.80
2022-11-19T06:58:28.839Z,-0.10
2022-11-19T06:59:35.021Z,-0.10
2022-11-19T07:00:38.922Z,-0.10
2022-11-19T07:01:41.632Z,2.20
2022-11-19T07:02:45.025Z,-0.10
2022-11-19T07:03:47.902Z,-0.10
2022-11-19T07:04:51.232Z,0.70
2022-11-19T07:05:58.057Z,0.70
2022-11-19T07:07:01.376Z,-0.10
2022-11-19T07:08:04.410Z,0.00
2022-11-19T07:09:07.747Z,-0.20
2022-11-19T07:10:10.233Z,1.30
2022-11-19T07:11:27.152Z,-0.10
2022-11-19T07:12:29.597Z,-0.10
2022-11-19T07:13:46.755Z,-0.10
2022-11-19T07:14:50.235Z,-0.10
2022-11-19T07:15:52.531Z,-0.10
2022-11-19T07:16:57.484Z,-0.10
2022-11-19T07:18:01.074Z,-0.10
2022-11-19T07:19:07.992Z,3.40
2022-11-19T07:20:12.219Z,-0.10
2022-11-19T07:21:14.619Z,-0.10
2022-11-19T07:22:18.101Z,-0.20
2022-11-19T07:23:20.943Z,-0.20
2022-11-19T07:24:24.239Z,-0.20
2022-11-19T07:25:26.696Z,-0.20
2022-11-19T07:26:32.290Z,-0.10
2022-11-19T07:27:37.052Z,0.60
2022-11-19T07:28:41.052Z,-0.10
2022-11-19T07:29:44.999Z,-0.10
2022-11-19T07:30:47.228Z,-0.10
2022-11-19T07:31:50.918Z,-0.10
2022-11-19T07:32:54.190Z,-0.10
2022-11-19T07:33:58.371Z,-0.10
2022-11-19T07:35:00.949Z,-0.10
2022-11-19T07:36:04.931Z,-0.10
2022-11-19T07:37:08.170Z,0.00
2022-11-19T07:38:10.505Z,-0.10
2022-11-19T07:39:14.941Z,-0.10
2022-11-19T07:40:17.575Z,-0.10
2022-11-19T07:41:40.577Z,0.00
2022-11-19T07:42:51.628Z,0.00
2022-11-19T07:43:54.228Z,-0.10
2022-11-19T07:44:58.012Z,-0.10
2022-11-19T07:46:06.175Z,0.00
2022-11-19T07:47:10.755Z,0.10
2022-11-19T07:48:13.517Z,0.10
2022-11-19T07:49:17.643Z,0.10
2022-11-19T07:50:21.137Z,1.70
2022-11-19T07:51:27.787Z,0.20
2022-11-19T07:52:30.826Z,0.10
2022-11-19T07:53:34.487Z,0.20
2022-11-19T07:54:37.907Z,0.10
2022-11-19T07:55:40.927Z,0.20
2022-11-19T07:56:44.649Z,0.30
2022-11-19T07:57:48.654Z,0.20
2022-11-19T07:58:52.790Z,0.20
2022-11-19T07:59:55.222Z,0.20
2022-11-19T08:00:58.850Z,0.20
2022-11-19T08:02:02.386Z,0.20
2022-11-19T08:03:05.708Z,0.30
2022-11-19T08:04:09.008Z,0.70
2022-11-19T08:05:11.257Z,0.30
2022-11-19T08:06:16.451Z,0.30
2022-11-19T08:07:21.210Z,0.30
2022-11-19T08:08:24.557Z,0.40
2022-11-19T08:09:27.246Z,0.30
2022-11-19T08:10:31.972Z,0.30
2022-11-19T08:11:36.256Z,0.40
2022-11-19T08:12:38.691Z,0.30
2022-11-19T08:13:43.737Z,0.40
2022-11-19T08:14:46.009Z,0.40
2022-11-19T08:15:49.491Z,0.60
2022-11-19T08:17:09.892Z,0.00
2022-11-19T08:18:12.573Z,0.50
2022-11-19T08:19:16.758Z,0.80
2022-11-19T08:20:20.203Z,0.70
2022-11-19T08:21:22.718Z,0.80
2022-11-19T08:22:26.372Z,1.00
2022-11-19T08:23:29.675Z,1.00
2022-11-19T08:24:33.101Z,1.20
2022-11-19T08:25:35.647Z,1.30
2022-11-19T08:26:40.920Z,1.40
2022-11-19T08:27:44.207Z,1.50
2022-11-19T08:28:49.062Z,1.70
2022-11-19T08:29:54.209Z,1.60
2022-11-19T08:31:06.013Z,1.70
2022-11-19T08:32:08.447Z,1.90
2022-11-19T08:33:11.825Z,2.00
2022-11-19T08:34:16.136Z,2.10
2022-11-19T08:35:19.878Z,2.20
2022-11-19T08:36:22.473Z,2.40
2022-11-19T08:37:25.851Z,2.50
2022-11-19T08:38:31.462Z,3.00
2022-11-19T08:39:38.295Z,2.70
2022-11-19T08:40:40.768Z,2.70
2022-11-19T08:42:09.946Z,2.70
2022-11-19T08:43:13.488Z,2.70
2022-11-19T08:44:18.443Z,3.70
2022-11-19T08:45:22.477Z,0.00
2022-11-19T08:46:25.919Z,2.80
2022-11-19T08:47:28.267Z,2.70
2022-11-19T08:48:31.515Z,2.70
2022-11-19T08:49:34.169Z,2.70
2022-11-19T08:50:37.646Z,2.60
2022-11-19T08:51:40.308Z,2.60
2022-11-19T08:52:44.060Z,2.60
2022-11-19T08:53:46.986Z,2.50
2022-11-19T08:54:51.153Z,2.50
2022-11-19T08:55:53.450Z,2.50
2022-11-19T08:56:57.146Z,2.50
2022-11-19T08:58:01.262Z,2.40
2022-11-19T08:59:05.353Z,2.40
2022-11-19T09:00:11.207Z,2.40
2022-11-19T09:01:17.474Z,2.40
2022-11-19T09:02:20.872Z,2.30
2022-11-19T09:03:23.311Z,2.30
2022-11-19T09:04:26.628Z,2.20
2022-11-19T09:05:30.470Z,2.00
2022-11-19T09:06:35.297Z,3.00
2022-11-19T09:07:38.851Z,2.10
2022-11-19T09:08:43.754Z,4.60
2022-11-19T09:09:46.172Z,2.10
2022-11-19T09:10:50.090Z,1.20
2022-11-19T09:11:55.525Z,2.10
2022-11-19T09:12:58.945Z,2.00
2022-11-19T09:14:01.451Z,2.00
2022-11-19T09:15:06.486Z,2.00
2022-11-19T09:16:13.169Z,2.00
2022-11-19T09:17:20.747Z,2.00
2022-11-19T09:18:23.110Z,2.00
2022-11-19T09:19:27.309Z,2.00
2022-11-19T09:20:30.906Z,2.00
2022-11-19T09:21:34.723Z,1.90
2022-11-19T09:22:38.678Z,2.90
2022-11-19T09:23:42.627Z,1.90
2022-11-19T09:24:49.332Z,1.90
2022-11-19T09:25:59.114Z,-1.10
2022-11-19T09:27:03.687Z,1.90
2022-11-19T09:28:06.457Z,2.00
2022-11-19T09:29:09.886Z,4.50
2022-11-19T09:30:14.296Z,2.00
2022-11-19T09:31:21.615Z,2.00
2022-11-19T09:32:25.617Z,2.00
2022-11-19T09:33:31.481Z,1.90
2022-11-19T09:34:35.310Z,2.00
2022-11-19T09:35:38.485Z,1.90
2022-11-19T09:36:41.975Z,1.90
2022-11-19T09:37:47.543Z,1.80
2022-11-19T09:38:50.585Z,1.70
2022-11-19T09:39:53.964Z,1.80
2022-11-19T09:41:14.691Z,0.90
2022-11-19T09:42:29.290Z,1.70
2022-11-19T09:43:48.171Z,1.70
2022-11-19T09:45:12.038Z,1.70
2022-11-19T09:46:30.299Z,0.50
2022-11-19T09:47:49.643Z,1.60
2022-11-19T09:49:00.493Z,2.90
2022-11-19T09:50:15.353Z,1.70
2022-11-19T09:51:27.093Z,1.70
2022-11-19T09:52:33.988Z,1.80
2022-11-19T09:53:45.997Z,1.70
2022-11-19T09:54:53.810Z,4.10
2022-11-19T09:56:00.099Z,1.70
2022-11-19T09:57:14.992Z,1.80
2022-11-19T09:58:25.940Z,3.60
2022-11-19T09:59:36.609Z,1.80
2022-11-19T10:00:40.411Z,1.80
2022-11-19T10:01:45.562Z,1.80
2022-11-19T10:02:48.540Z,2.80
2022-11-19T10:03:55.642Z,1.80
2022-11-19T10:04:59.584Z,1.70
2022-11-19T10:06:24.667Z,1.70
2022-11-19T10:07:45.522Z,1.60
2022-11-19T10:09:10.060Z,2.00
2022-11-19T10:10:35.170Z,1.50
2022-11-19T10:11:53.973Z,2.60
2022-11-19T10:13:13.777Z,1.50
2022-11-19T10:14:37.392Z,1.60
2022-11-19T10:15:57.175Z,1.70
2022-11-19T10:17:19.184Z,1.70
2022-11-19T10:18:32.051Z,1.70
2022-11-19T10:19:49.422Z,1.80
2022-11-19T10:21:00.823Z,2.00
2022-11-19T10:22:12.500Z,2.20
2022-11-19T10:23:18.471Z,2.40
2022-11-19T10:24:37.777Z,2.60
2022-11-19T10:25:45.693Z,2.90
2022-11-19T10:27:01.989Z,3.10
2022-11-19T10:28:15.943Z,3.20
2022-11-19T10:29:23.507Z,3.30
2022-11-19T10:30:30.429Z,3.20
2022-11-19T10:31:38.741Z,3.30
2022-11-19T10:32:48.925Z,3.40
2022-11-19T10:34:00.891Z,3.30
2022-11-19T10:35:16.720Z,3.20
2022-11-19T10:36:26.494Z,3.20
2022-11-19T10:37:36.659Z,4.30
2022-11-19T10:38:54.766Z,3.10
2022-11-19T10:40:03.785Z,3.00
2022-11-19T10:41:16.170Z,3.40
2022-11-19T10:42:23.277Z,2.80
2022-11-19T10:43:33.325Z,2.60
2022-11-19T10:44:42.223Z,2.40
2022-11-19T10:45:46.339Z,2.40
2022-11-19T10:46:51.184Z,2.30
2022-11-19T10:48:09.100Z,2.20
2022-11-19T10:49:12.190Z,2.30
2022-11-19T10:50:20.080Z,2.30
2022-11-19T10:51:24.534Z,2.10
2022-11-19T10:52:32.581Z,2.20
2022-11-19T10:53:39.535Z,2.10
2022-11-19T10:54:43.925Z,2.00
2022-11-19T10:55:54.701Z,2.00
2022-11-19T10:57:00.567Z,2.00
2022-11-19T10:58:18.373Z,2.00
2022-11-19T10:59:28.392Z,1.80
2022-11-19T11:00:31.028Z,1.80
2022-11-19T11:01:38.437Z,1.90
2022-11-19T11:02:48.208Z,1.70
2022-11-19T11:04:05.897Z,1.70
2022-11-19T11:05:13.326Z,1.70
2022-11-19T11:06:16.986Z,1.50
2022-11-19T11:07:20.949Z,1.80
2022-11-19T11:08:27.308Z,3.30
2022-11-19T11:09:36.590Z,1.60
2022-11-19T11:10:44.457Z,1.70
2022-11-19T11:12:09.929Z,1.60
2022-11-19T11:13:56.151Z,1.40
2022-11-19T11:15:14.119Z,1.40
2022-11-19T11:16:21.333Z,1.40
2022-11-19T11:17:28.438Z,2.00
2022-11-19T11:18:32.775Z,2.00
2022-11-19T11:19:37.853Z,1.90
2022-11-19T11:20:48.253Z,1.80
2022-11-19T11:21:55.635Z,1.60
2022-11-19T11:23:08.716Z,1.50
2022-11-19T11:24:14.758Z,1.70
2022-11-19T11:25:22.263Z,1.50
2022-11-19T11:26:31.154Z,2.30
2022-11-19T11:27:35.622Z,1.50
2022-11-19T11:28:56.960Z,1.60
2022-11-19T11:30:16.625Z,1.50
2022-11-19T11:31:38.417Z,-1.00
2022-11-19T11:32:42.655Z,1.40
2022-11-19T11:33:57.948Z,1.30
2022-11-19T11:35:07.515Z,1.30
2022-11-19T11:36:17.405Z,1.40
2022-11-19T11:37:20.810Z,1.30
2022-11-19T11:38:27.772Z,1.40
2022-11-19T11:39:35.229Z,1.30
2022-11-19T11:40:37.933Z,1.30
2022-11-19T11:43:08.013Z,1.30
2022-11-19T11:44:21.263Z,1.30
2022-11-19T11:45:32.594Z,1.30
2022-11-19T11:46:40.201Z,1.30
2022-11-19T11:47:43.903Z,1.40
2022-11-19T11:48:50.317Z,1.40
2022-11-19T11:50:06.021Z,1.60
2022-11-19T11:51:22.839Z,1.30
2022-11-19T11:52:35.693Z,1.40
2022-11-19T11:53:37.999Z,1.40
2022-11-19T11:54:56.702Z,1.50
2022-11-19T11:56:01.883Z,1.40
2022-11-19T11:57:17.763Z,1.40
2022-11-19T11:58:30.727Z,1.40
2022-11-19T11:59:33.519Z,1.50
2022-11-19T12:00:39.778Z,1.50
2022-11-19T12:01:42.318Z,1.40
2022-11-19T12:03:01.630Z,1.40
2022-11-19T12:04:04.862Z,1.40
2022-11-19T12:05:19.272Z,1.50
2022-11-19T12:06:25.963Z,1.50
2022-11-19T12:07:43.609Z,1.40
2022-11-19T12:09:01.782Z,1.40
2022-11-19T12:10:25.238Z,1.40
2022-11-19T12:11:58.204Z,1.40
2022-11-19T12:13:21.110Z,1.40
2022-11-19T12:14:29.647Z,1.30
2022-11-19T12:15:51.574Z,1.40
2022-11-19T12:17:24.232Z,1.40
2022-11-19T12:18:42.741Z,1.30
2022-11-19T12:20:08.845Z,1.60
2022-11-19T12:21:24.769Z,1.30
2022-11-19T12:22:41.876Z,1.20
2022-11-19T12:24:08.956Z,1.20
2022-11-19T12:25:33.096Z,1.30
2022-11-19T12:26:49.482Z,1.10
2022-11-19T12:28:15.314Z,1.00
2022-11-19T12:29:29.190Z,3.70
2022-11-19T12:30:44.408Z,1.40
2022-11-19T12:32:11.024Z,1.10
2022-11-19T12:33:43.248Z,1.10
2022-11-19T12:35:10.151Z,1.50
2022-11-19T12:36:25.862Z,1.20
2022-11-19T12:37:52.663Z,2.00
2022-11-19T12:39:08.709Z,1.20
2022-11-19T12:40:36.617Z,1.20
2022-11-19T12:42:07.435Z,1.20
2022-11-19T12:43:35.788Z,1.20
2022-11-19T12:44:53.035Z,1.20
2022-11-19T12:46:10.195Z,1.10
2022-11-19T12:47:32.276Z,1.10
2022-11-19T12:48:52.464Z,1.20
2022-11-19T12:50:11.597Z,1.10
2022-11-19T12:51:30.205Z,1.10
2022-11-19T12:52:59.116Z,1.80
2022-11-19T12:54:33.468Z,1.20
2022-11-19T12:55:50.365Z,1.20
2022-11-19T12:57:13.966Z,1.20
2022-11-19T12:58:28.458Z,1.20
2022-11-19T12:59:52.433Z,1.30
2022-11-19T13:01:00.901Z,1.20
2022-11-19T13:02:18.123Z,1.10
2022-11-19T13:03:29.183Z,1.20
2022-11-19T13:04:41.936Z,2.50
2022-11-19T13:05:51.719Z,1.10
2022-11-19T13:07:04.247Z,0.90
2022-11-19T13:08:18.626Z,0.80
2022-11-19T13:09:36.080Z,0.80
2022-11-19T13:10:46.582Z,0.80
2022-11-19T13:11:56.660Z,1.00
2022-11-19T13:13:04.225Z,2.00
2022-11-19T13:14:16.399Z,1.10
2022-11-19T13:15:25.523Z,1.10
2022-11-19T13:16:33.209Z,1.20
2022-11-19T13:17:46.787Z,1.30
2022-11-19T13:18:57.863Z,1.30
2022-11-19T13:20:06.838Z,1.30
2022-11-19T13:21:21.717Z,-1.10
2022-11-19T13:22:32.966Z,1.40
2022-11-19T13:23:42.986Z,1.50
2022-11-19T13:24:52.584Z,1.60
2022-11-19T13:26:01.024Z,2.10
2022-11-19T13:27:09.060Z,3.40
2022-11-19T13:28:23.298Z,2.70
2022-11-19T13:29:46.501Z,1.70
2022-11-19T13:30:54.788Z,1.90
2022-11-19T13:32:04.589Z,1.60
2022-11-19T13:33:17.177Z,1.60
2022-11-19T13:34:27.260Z,1.60
2022-11-19T13:35:39.888Z,1.50
2022-11-19T13:36:53.925Z,1.60
2022-11-19T13:38:05.476Z,1.50
2022-11-19T13:39:22.958Z,1.50
2022-11-19T13:40:31.530Z,1.60
2022-11-19T13:42:04.856Z,3.60
2022-11-19T13:43:32.799Z,1.20
2022-11-19T13:44:41.654Z,1.50
2022-11-19T13:45:53.046Z,1.50
2022-11-19T13:47:01.001Z,1.50
2022-11-19T13:48:13.771Z,1.40
2022-11-19T13:49:27.778Z,1.50
2022-11-19T13:50:39.883Z,1.50
2022-11-19T13:51:46.052Z,1.50
2022-11-19T13:52:58.650Z,1.50
2022-11-19T13:54:07.879Z,1.50
2022-11-19T13:55:32.063Z,1.40
2022-11-19T13:56:47.478Z,1.40
2022-11-19T13:57:50.369Z,1.30
2022-11-19T13:58:57.137Z,1.10
2022-11-19T14:00:06.555Z,1.20
2022-11-19T14:01:43.920Z,1.20
2022-11-19T14:03:11.372Z,1.10
2022-11-19T14:04:44.082Z,1.10
2022-11-19T14:06:13.996Z,1.20
2022-11-19T14:07:47.178Z,1.10
2022-11-19T14:09:07.558Z,1.10
2022-11-19T14:10:23.531Z,1.10
2022-11-19T14:11:53.744Z,1.10
2022-11-19T14:13:16.069Z,1.20
2022-11-19T14:14:55.311Z,2.10
2022-11-19T14:16:33.761Z,1.10
2022-11-19T14:18:05.272Z,1.10
2022-11-19T14:19:35.739Z,1.00
2022-11-19T14:21:06.421Z,0.90
2022-11-19T14:22:53.024Z,0.90
2022-11-19T14:24:14.168Z,-0.60
2022-11-19T14:26:01.937Z,0.80
2022-11-19T14:27:19.914Z,0.70
2022-11-19T14:28:44.308Z,0.70
2022-11-19T14:29:59.441Z,0.70
2022-11-19T14:31:05.153Z,0.70
2022-11-19T14:32:29.881Z,0.60
2022-11-19T14:34:00.013Z,0.70
2022-11-19T14:35:35.963Z,0.70
2022-11-19T14:36:47.963Z,0.70
2022-11-19T14:37:54.762Z,0.60
2022-11-19T14:39:04.598Z,0.50
2022-11-19T14:48:19.993Z,0.50
2022-11-19T14:59:59.872Z,0.30
2022-11-19T15:04:55.191Z,0.30
2022-11-19T15:06:32.423Z,0.30
2022-11-19T15:07:56.381Z,2.30
2022-11-19T15:09:22.812Z,0.30
2022-11-19T15:15:13.528Z,0.30
2022-11-19T15:16:30.134Z,0.40
2022-11-19T15:17:41.072Z,0.40
2022-11-19T15:19:49.024Z,0.30
2022-11-19T15:59:48.486Z,0.00
2022-11-19T16:01:05.868Z,-0.10
2022-11-19T16:06:30.181Z,-0.10
2022-11-19T16:07:43.649Z,-0.20
2022-11-19T16:08:58.937Z,-0.30
2022-11-19T16:10:43.504Z,-0.20
2022-11-19T16:18:59.083Z,-0.30
2022-11-19T16:20:12.453Z,-0.30
2022-11-19T16:33:04.133Z,-0.30
2022-11-19T16:42:24.957Z,-0.30
2022-11-19T16:43:36.824Z,-0.40
2022-11-19T17:06:56.787Z,-1.00
2022-11-19T17:23:25.572Z,-1.20
2022-11-19T17:30:45.210Z,-1.10